createdAt,value
2023-05-14T00:01:05.399Z,102035.92
2023-05-14T00:03:33.985Z,102038.98
2023-05-14T00:06:03.187Z,102039.54
2023-05-14T00:08:31.516Z,102037.85
2023-05-14T00:11:00.241Z,102037.60
2023-05-14T00:13:28.710Z,102037.73
2023-05-14T00:15:57.249Z,102038.69
2023-05-14T00:18:25.958Z,102038.25
2023-05-14T00:20:55.095Z,102040.96
2023-05-14T00:23:23.941Z,102041.23
2023-05-14T00:25:52.323Z,102047.44
2023-05-14T00:28:22.173Z,102047.02
2023-05-14T00:30:51.074Z,102040.23
2023-05-14T00:33:19.484Z,102037.27
2023-05-14T00:35:47.845Z,102029.08
2023-05-14T00:38:19.705Z,102032.10
2023-05-14T00:40:51.959Z,102027.41
2023-05-14T00:43:21.864Z,102028.83
2023-05-14T00:45:52.013Z,102022.47
2023-05-14T00:48:21.616Z,102021.36
2023-05-14T00:50:51.308Z,102019.75
2023-05-14T00:53:20.904Z,102018.84
2023-05-14T00:55:50.549Z,102020.01
2023-05-14T00:58:19.970Z,102019.98
2023-05-14T01:00:48.486Z,102014.55
2023-05-14T01:03:16.943Z,102012.52
2023-05-14T01:06:10.207Z,102011.20
2023-05-14T01:08:41.376Z,102010.59
2023-05-14T01:11:22.697Z,102008.74
2023-05-14T01:14:03.059Z,102011.73
2023-05-14T01:16:34.285Z,102015.60
2023-05-14T01:19:06.320Z,102015.92
2023-05-14T01:21:38.674Z,102015.77
2023-05-14T01:24:08.506Z,102016.23
2023-05-14T01:26:37.674Z,102017.95
2023-05-14T01:29:16.718Z,102019.22
2023-05-14T01:31:47.599Z,102016.71
2023-05-14T01:34:16.525Z,102020.11
2023-05-14T01:36:45.782Z,102017.92
2023-05-14T01:39:15.548Z,102012.97
2023-05-14T01:41:45.722Z,102017.36
2023-05-14T01:44:14.955Z,102018.66
2023-05-14T01:46:43.208Z,102019.80
2023-05-14T01:49:11.385Z,102021.74
2023-05-14T01:51:39.866Z,102024.57
2023-05-14T01:54:08.689Z,102024.41
2023-05-14T01:56:37.071Z,102029.41
2023-05-14T01:59:05.526Z,102029.91
2023-05-14T02:01:34.210Z,102031.30
2023-05-14T02:04:02.573Z,102031.89
2023-05-14T02:06:32.423Z,102036.95
2023-05-14T02:09:00.619Z,102035.30
2023-05-14T02:11:28.875Z,102035.54
2023-05-14T02:13:57.246Z,102034.54
2023-05-14T02:16:26.248Z,102036.24
2023-05-14T02:18:55.123Z,102035.77
2023-05-14T02:21:24.502Z,102040.11
2023-05-14T02:23:52.847Z,102041.63
2023-05-14T02:26:21.663Z,102040.27
2023-05-14T02:28:49.997Z,102040.09
2023-05-14T02:31:19.643Z,102036.09
2023-05-14T02:33:48.214Z,102036.27
2023-05-14T02:36:16.786Z,102037.80
2023-05-14T02:38:45.521Z,102041.20
2023-05-14T02:41:13.808Z,102043.86
2023-05-14T02:43:42.006Z,102045.15
2023-05-14T02:46:12.356Z,102044.23
2023-05-14T02:48:41.293Z,102034.12
2023-05-14T02:51:09.687Z,102037.10
2023-05-14T02:53:38.031Z,102035.38
2023-05-14T02:56:06.671Z,102036.88
2023-05-14T02:58:34.970Z,102035.30
2023-05-14T03:01:03.617Z,102036.54
2023-05-14T03:03:33.236Z,102035.45
2023-05-14T03:06:02.138Z,102037.67
2023-05-14T03:08:30.520Z,102035.22
2023-05-14T03:10:58.899Z,102036.05
2023-05-14T03:13:27.196Z,102033.21
2023-05-14T03:15:55.925Z,102030.00
2023-05-14T03:18:24.285Z,102033.26
2023-05-14T03:20:52.470Z,102033.11
2023-05-14T03:23:21.115Z,102042.30
2023-05-14T03:25:49.498Z,102050.42
2023-05-14T03:28:17.832Z,102055.40
2023-05-14T03:30:46.264Z,102058.66
2023-05-14T03:33:14.698Z,102060.17
2023-05-14T03:35:42.942Z,102062.20
2023-05-14T03:38:11.244Z,102060.69
2023-05-14T03:40:39.639Z,102061.95
2023-05-14T03:43:07.980Z,102058.88
2023-05-14T03:45:36.313Z,102057.07
2023-05-14T03:48:05.074Z,102058.04
2023-05-14T03:50:34.325Z,102058.34
2023-05-14T03:53:02.525Z,102063.52
2023-05-14T03:55:31.420Z,102065.70
2023-05-14T03:57:59.852Z,102063.31
2023-05-14T04:00:29.303Z,102067.59
2023-05-14T04:02:57.749Z,102072.58
2023-05-14T04:05:26.274Z,102075.17
2023-05-14T04:07:54.684Z,102078.19
2023-05-14T04:10:23.395Z,102080.43
2023-05-14T04:12:51.998Z,102086.11
2023-05-14T04:15:20.480Z,102086.52
2023-05-14T04:17:48.938Z,102090.02
2023-05-14T04:20:17.493Z,102088.47
2023-05-14T04:22:45.780Z,102091.15
2023-05-14T04:25:14.200Z,102088.08
2023-05-14T04:27:42.475Z,102082.98
2023-05-14T04:30:11.374Z,102081.77
2023-05-14T04:36:18.074Z,102085.36
2023-05-14T04:38:46.550Z,102090.23
2023-05-14T04:41:15.058Z,102089.05
2023-05-14T04:43:43.498Z,102093.22
2023-05-14T04:46:11.910Z,102094.45
2023-05-14T04:48:40.400Z,102097.55
2023-05-14T04:51:08.822Z,102101.55
2023-05-14T04:53:37.295Z,102105.74
2023-05-14T04:56:05.746Z,102099.89
2023-05-14T04:58:35.429Z,102096.00
2023-05-14T05:01:06.342Z,102095.92
2023-05-14T05:03:34.949Z,102097.79
2023-05-14T05:06:03.719Z,102099.48
2023-05-14T05:08:31.973Z,102099.80
2023-05-14T05:11:00.507Z,102098.10
2023-05-14T05:13:28.784Z,102098.02
2023-05-14T05:15:57.121Z,102097.88
2023-05-14T05:18:25.655Z,102099.31
2023-05-14T05:20:53.968Z,102101.23
2023-05-14T05:23:22.221Z,102101.09
2023-05-14T05:25:53.829Z,102103.70
2023-05-14T05:28:23.039Z,102102.67
2023-05-14T05:30:51.456Z,102100.22
2023-05-14T05:33:19.943Z,102095.65
2023-05-14T05:35:50.217Z,102095.08
2023-05-14T05:38:18.515Z,102093.30
2023-05-14T05:40:46.970Z,102092.23
2023-05-14T05:43:15.669Z,102091.20
2023-05-14T05:45:44.288Z,102089.94
2023-05-14T05:48:12.814Z,102088.34
2023-05-14T05:50:41.144Z,102088.33
2023-05-14T05:53:09.405Z,102080.41
2023-05-14T05:55:37.832Z,102081.07
2023-05-14T05:58:06.023Z,102084.17
2023-05-14T06:00:34.588Z,102080.41
2023-05-14T06:03:02.817Z,102080.16
2023-05-14T06:05:30.955Z,102079.02
2023-05-14T06:07:59.107Z,102073.85
2023-05-14T06:10:27.394Z,102072.16
2023-05-14T06:12:55.914Z,102073.48
2023-05-14T06:15:24.278Z,102071.78
2023-05-14T06:17:52.656Z,102067.46
2023-05-14T06:20:21.322Z,102066.45
2023-05-14T06:22:49.655Z,102064.22
2023-05-14T06:25:18.109Z,102062.84
2023-05-14T06:27:46.429Z,102061.13
2023-05-14T06:30:15.404Z,102058.88
2023-05-14T06:32:43.816Z,102058.70
2023-05-14T06:35:12.201Z,102054.18
2023-05-14T06:37:40.532Z,102054.00
2023-05-14T06:40:09.299Z,102055.23
2023-05-14T06:42:38.757Z,102055.58
2023-05-14T06:45:07.878Z,102057.34
2023-05-14T06:47:36.274Z,102056.97
2023-05-14T06:50:04.913Z,102053.09
2023-05-14T06:52:33.730Z,102050.63
2023-05-14T06:55:02.098Z,102044.98
2023-05-14T06:57:30.534Z,102038.45
2023-05-14T06:59:59.279Z,102035.45
2023-05-14T07:02:27.843Z,102037.85
2023-05-14T07:04:56.332Z,102031.84
2023-05-14T07:07:24.738Z,102033.52
2023-05-14T07:09:53.079Z,102036.45
2023-05-14T07:12:21.352Z,102036.39
2023-05-14T07:14:50.341Z,102031.94
2023-05-14T07:17:18.715Z,102027.99
2023-05-14T07:19:47.472Z,102023.54
2023-05-14T07:22:15.895Z,102022.38
2023-05-14T07:24:44.212Z,102019.81
2023-05-14T07:27:12.594Z,102015.48
2023-05-14T07:29:41.064Z,102016.26
2023-05-14T07:32:09.821Z,102013.72
2023-05-14T07:34:38.042Z,102006.45
2023-05-14T07:37:06.177Z,102004.10
2023-05-14T07:39:34.560Z,102005.43
2023-05-14T07:42:02.844Z,101998.14
2023-05-14T07:44:31.140Z,101996.04
2023-05-14T07:46:59.597Z,101999.60
2023-05-14T07:49:28.021Z,101993.32
2023-05-14T07:51:56.406Z,101992.42
2023-05-14T07:54:24.975Z,101993.52
2023-05-14T07:56:53.252Z,101989.84
2023-05-14T07:59:21.661Z,101986.73
2023-05-14T08:01:49.974Z,101985.02
2023-05-14T08:04:18.434Z,101986.81
2023-05-14T08:06:46.850Z,101979.20
2023-05-14T08:09:15.489Z,101983.39
2023-05-14T08:11:44.883Z,101981.06
2023-05-14T08:14:13.261Z,101976.45
2023-05-14T08:16:41.662Z,101974.11
2023-05-14T08:19:10.256Z,101975.48
2023-05-14T08:21:38.433Z,101971.27
2023-05-14T08:24:06.869Z,101969.70
2023-05-14T08:26:35.256Z,101969.11
2023-05-14T08:29:03.497Z,101963.41
2023-05-14T08:31:31.930Z,101961.86
2023-05-14T08:34:00.377Z,101963.44
2023-05-14T08:36:28.684Z,101959.40
2023-05-14T08:38:56.811Z,101958.76
2023-05-14T08:41:26.941Z,101957.06
2023-05-14T08:44:01.284Z,101958.69
2023-05-14T08:46:32.252Z,101951.85
2023-05-14T08:49:09.235Z,101954.02
2023-05-14T08:51:38.353Z,101948.89
2023-05-14T08:54:06.870Z,101946.06
2023-05-14T08:56:36.134Z,101943.42
2023-05-14T08:59:05.112Z,101943.60
2023-05-14T09:01:33.865Z,101937.29
2023-05-14T09:04:07.278Z,101929.20
2023-05-14T09:06:40.158Z,101930.34
2023-05-14T09:09:08.489Z,101930.34
2023-05-14T09:11:47.309Z,101930.09
2023-05-14T09:14:16.215Z,101923.27
2023-05-14T09:16:46.344Z,101915.25
2023-05-14T09:19:19.229Z,101918.92
2023-05-14T09:21:49.231Z,101910.83
2023-05-14T09:24:21.641Z,101912.52
2023-05-14T09:26:55.125Z,101909.34
2023-05-14T09:29:27.998Z,101904.90
2023-05-14T09:31:57.626Z,101901.15
2023-05-14T09:34:31.148Z,101894.85
2023-05-14T09:37:02.608Z,101895.21
2023-05-14T09:39:31.396Z,101894.36
2023-05-14T09:41:59.972Z,101896.00
2023-05-14T09:44:28.477Z,101893.96
2023-05-14T09:46:56.922Z,101890.09
2023-05-14T09:49:25.481Z,101887.76
2023-05-14T09:51:53.793Z,101884.63
2023-05-14T09:54:22.059Z,101883.02
2023-05-14T09:56:50.434Z,101881.45
2023-05-14T09:59:18.804Z,101871.20
2023-05-14T10:01:47.826Z,101878.48
2023-05-14T10:04:16.194Z,101871.34
2023-05-14T10:06:51.451Z,101869.63
2023-05-14T10:09:23.396Z,101864.92
2023-05-14T10:11:54.098Z,101857.81
2023-05-14T10:14:41.220Z,101857.19
2023-05-14T10:17:18.304Z,101853.83
2023-05-14T10:19:54.057Z,101842.81
2023-05-14T10:22:31.560Z,101842.15
2023-05-14T10:25:00.796Z,101840.58
2023-05-14T10:27:29.539Z,101839.33
2023-05-14T10:29:58.288Z,101832.77
2023-05-14T10:32:26.734Z,101830.37
2023-05-14T10:34:55.010Z,101828.48
2023-05-14T10:37:26.690Z,101833.44
2023-05-14T10:39:59.691Z,101834.54
2023-05-14T10:42:33.661Z,101835.75
2023-05-14T10:45:10.555Z,101827.92
2023-05-14T10:47:48.929Z,101824.33
2023-05-14T10:50:18.732Z,101818.79
2023-05-14T10:52:47.133Z,101818.08
2023-05-14T10:55:17.249Z,101814.75
2023-05-14T10:57:46.858Z,101814.72
2023-05-14T11:00:15.673Z,101818.20
2023-05-14T11:02:45.257Z,101818.23
2023-05-14T11:05:17.916Z,101818.42
2023-05-14T11:07:48.895Z,101814.23
2023-05-14T11:10:26.160Z,101811.10
2023-05-14T11:12:54.767Z,101809.88
2023-05-14T11:15:26.236Z,101806.38
2023-05-14T11:17:54.952Z,101806.66
2023-05-14T11:20:23.651Z,101805.14
2023-05-14T11:22:52.090Z,101812.43
2023-05-14T11:25:21.916Z,101809.97
2023-05-14T11:27:50.476Z,101802.55
2023-05-14T11:30:20.214Z,101800.30
2023-05-14T11:32:49.636Z,101802.45
2023-05-14T11:35:18.438Z,101801.91
2023-05-14T11:37:52.561Z,101795.96
2023-05-14T11:40:21.331Z,101791.73
2023-05-14T11:42:52.431Z,101794.59
2023-05-14T11:45:29.878Z,101798.23
2023-05-14T11:47:58.263Z,101793.03
2023-05-14T11:50:26.769Z,101783.60
2023-05-14T11:53:00.646Z,101778.76
2023-05-14T11:55:30.513Z,101778.12
2023-05-14T11:57:58.965Z,101771.20
2023-05-14T12:00:27.352Z,101764.50
2023-05-14T12:02:55.675Z,101764.70
2023-05-14T12:05:23.982Z,101758.09
2023-05-14T12:07:52.240Z,101756.36
2023-05-14T12:10:20.601Z,101758.64
2023-05-14T12:12:49.046Z,101756.27
2023-05-14T12:15:17.512Z,101750.63
2023-05-14T12:17:52.285Z,101737.69
2023-05-14T12:20:20.742Z,101734.48
2023-05-14T12:22:49.353Z,101738.91
2023-05-14T12:25:17.889Z,101736.67
2023-05-14T12:27:47.252Z,101729.97
2023-05-14T12:32:47.262Z,101720.48
2023-05-14T12:35:15.583Z,101718.32
2023-05-14T12:37:43.805Z,101711.46
2023-05-14T12:40:12.230Z,101709.15
2023-05-14T12:42:40.512Z,101707.42
2023-05-14T12:45:09.099Z,101698.48
2023-05-14T12:47:37.723Z,101694.67
2023-05-14T12:50:06.999Z,101695.34
2023-05-14T12:55:07.923Z,101684.16
2023-05-14T12:57:36.739Z,101685.58
2023-05-14T13:00:13.019Z,101688.98
2023-05-14T13:02:43.852Z,101684.25
2023-05-14T13:05:12.878Z,101673.86
2023-05-14T13:07:41.824Z,101670.30
2023-05-14T13:10:12.277Z,101663.95
2023-05-14T13:12:40.655Z,101659.52
2023-05-14T13:15:09.802Z,101655.63
2023-05-14T13:17:38.176Z,101656.96
2023-05-14T13:20:07.410Z,101655.23
2023-05-14T13:22:35.671Z,101657.84
2023-05-14T13:25:04.517Z,101653.09
2023-05-14T13:27:33.890Z,101653.17
2023-05-14T13:30:02.357Z,101655.73
2023-05-14T13:32:31.134Z,101653.04
2023-05-14T13:34:59.389Z,101649.27
2023-05-14T13:37:28.569Z,101650.95
2023-05-14T13:39:58.302Z,101648.02
2023-05-14T13:42:27.266Z,101646.58
2023-05-14T13:44:56.606Z,101645.58
2023-05-14T13:47:26.168Z,101647.80
2023-05-14T13:49:55.101Z,101651.30
2023-05-14T13:52:23.377Z,101650.52
2023-05-14T13:54:51.719Z,101650.70
2023-05-14T13:57:21.676Z,101656.64
2023-05-14T13:59:50.042Z,101656.55
2023-05-14T14:02:18.360Z,101651.21
2023-05-14T14:04:49.839Z,101642.95
2023-05-14T14:07:18.047Z,101641.84
2023-05-14T14:09:46.623Z,101641.59
2023-05-14T14:12:17.670Z,101638.83
2023-05-14T14:14:46.162Z,101636.41
2023-05-14T14:17:14.311Z,101640.46
2023-05-14T14:19:44.019Z,101632.44
2023-05-14T14:22:17.719Z,101635.75
2023-05-14T14:24:45.985Z,101637.93
2023-05-14T14:27:14.117Z,101635.56
2023-05-14T14:29:42.399Z,101634.16
2023-05-14T14:32:10.748Z,101633.52
2023-05-14T14:34:39.137Z,101632.86
2023-05-14T14:37:07.433Z,101629.09
2023-05-14T14:39:35.732Z,101628.84
2023-05-14T14:42:04.606Z,101634.62
2023-05-14T14:44:33.058Z,101630.48
2023-05-14T14:47:03.388Z,101631.64
2023-05-14T14:49:32.771Z,101623.23
2023-05-14T14:52:01.170Z,101621.16
2023-05-14T14:54:29.646Z,101614.91
2023-05-14T14:56:57.969Z,101611.75
2023-05-14T14:59:26.154Z,101611.66
2023-05-14T15:01:54.579Z,101611.05
2023-05-14T15:04:23.169Z,101610.47
2023-05-14T15:06:53.548Z,101603.35
2023-05-14T15:09:21.854Z,101606.68
2023-05-14T15:11:50.413Z,101608.58
2023-05-14T15:14:18.621Z,101602.73
2023-05-14T15:16:48.828Z,101599.79
2023-05-14T15:19:20.551Z,101591.58
2023-05-14T15:21:49.273Z,101588.75
2023-05-14T15:24:17.562Z,101590.58
2023-05-14T15:26:46.236Z,101586.64
2023-05-14T15:29:14.436Z,101584.23
2023-05-14T15:31:43.041Z,101579.45
2023-05-14T15:34:11.580Z,101576.91
2023-05-14T15:36:40.169Z,101569.59
2023-05-14T15:39:10.397Z,101564.76
2023-05-14T15:41:38.650Z,101564.09
2023-05-14T15:44:07.866Z,101556.91
2023-05-14T15:46:38.046Z,101561.31
2023-05-14T15:49:06.666Z,101562.06
2023-05-14T15:51:35.258Z,101560.21
2023-05-14T15:54:06.072Z,101557.15
2023-05-14T15:56:34.552Z,101553.95
2023-05-14T15:59:03.449Z,101544.16
2023-05-14T16:01:32.144Z,101541.02
2023-05-14T16:04:00.777Z,101540.30
2023-05-14T16:06:28.997Z,101544.64
2023-05-14T16:08:57.278Z,101541.20
2023-05-14T16:11:25.563Z,101537.95
2023-05-14T16:13:53.818Z,101534.58
2023-05-14T16:16:23.426Z,101537.12
2023-05-14T16:18:51.841Z,101535.48
2023-05-14T16:21:20.490Z,101532.36
2023-05-14T16:23:48.869Z,101530.83
2023-05-14T16:26:17.181Z,101528.10
2023-05-14T16:28:45.538Z,101529.97
2023-05-14T16:31:15.481Z,101534.33
2023-05-14T16:33:43.862Z,101532.67
2023-05-14T16:36:12.313Z,101529.79
2023-05-14T16:38:48.315Z,101533.69
2023-05-14T16:41:29.588Z,101535.45
2023-05-14T16:43:57.849Z,101535.01
2023-05-14T16:46:28.383Z,101531.74
2023-05-14T16:48:56.930Z,101531.83
2023-05-14T16:51:25.306Z,101533.14
2023-05-14T16:53:55.622Z,101535.13
2023-05-14T16:56:24.583Z,101540.67
2023-05-14T16:58:53.309Z,101542.45
2023-05-14T17:01:21.538Z,101546.52
2023-05-14T17:03:49.878Z,101541.73
2023-05-14T17:06:17.960Z,101537.64
2023-05-14T17:08:46.253Z,101535.48
2023-05-14T17:11:14.602Z,101531.02
2023-05-14T17:13:59.591Z,101536.81
2023-05-14T17:16:27.335Z,101540.80
2023-05-14T17:18:57.399Z,101549.58
2023-05-14T17:21:25.693Z,101553.79
2023-05-14T17:23:53.946Z,101557.45
2023-05-14T17:26:24.231Z,101563.95
2023-05-14T17:28:52.809Z,101573.95
2023-05-14T17:31:22.557Z,101578.17
2023-05-14T17:33:50.946Z,101582.92
2023-05-14T17:36:19.203Z,101588.40
2023-05-14T17:38:47.543Z,101586.98
2023-05-14T17:41:17.944Z,101583.80
2023-05-14T17:43:46.242Z,101585.67
2023-05-14T17:46:14.618Z,101587.75
2023-05-14T17:48:43.188Z,101586.63
2023-05-14T17:51:11.662Z,101591.38
2023-05-14T17:53:39.980Z,101600.48
2023-05-14T17:56:08.332Z,101608.52
2023-05-14T17:58:38.325Z,101616.88
2023-05-14T18:01:06.907Z,101619.40
2023-05-14T18:03:35.308Z,101617.89
2023-05-14T18:06:03.881Z,101614.24
2023-05-14T18:08:34.634Z,101609.02
2023-05-14T18:11:03.146Z,101606.78
2023-05-14T18:13:31.439Z,101603.31
2023-05-14T18:16:01.357Z,101599.84
2023-05-14T18:18:29.898Z,101596.73
2023-05-14T18:20:58.622Z,101590.05
2023-05-14T18:23:27.596Z,101590.63
2023-05-14T18:25:57.622Z,101584.85
2023-05-14T18:28:26.729Z,101585.54
2023-05-14T18:30:55.113Z,101585.16
2023-05-14T18:33:23.489Z,101582.66
2023-05-14T18:35:51.845Z,101580.69
2023-05-14T18:38:20.139Z,101576.76
2023-05-14T18:40:49.578Z,101565.27
2023-05-14T18:43:19.807Z,101563.50
2023-05-14T18:45:48.460Z,101566.63
2023-05-14T18:48:16.977Z,101566.93
2023-05-14T18:50:45.467Z,101566.70
2023-05-14T18:53:13.796Z,101571.56
2023-05-14T18:55:42.351Z,101577.08
2023-05-14T18:58:10.676Z,101582.40
2023-05-14T19:00:39.015Z,101589.65
2023-05-14T19:03:08.273Z,101594.42
2023-05-14T19:05:36.768Z,101596.23
2023-05-14T19:08:06.068Z,101600.10
2023-05-14T19:10:35.036Z,101596.27
2023-05-14T19:13:03.680Z,101592.44
2023-05-14T19:15:32.652Z,101595.06
2023-05-14T19:18:01.551Z,101592.62
2023-05-14T19:20:29.886Z,101593.86
2023-05-14T19:22:58.068Z,101597.38
2023-05-14T19:25:26.953Z,101595.83
2023-05-14T19:27:57.165Z,101590.41
2023-05-14T19:30:25.798Z,101595.19
2023-05-14T19:32:54.281Z,101599.45
2023-05-14T19:35:23.078Z,101601.83
2023-05-14T19:37:51.555Z,101602.08
2023-05-14T19:40:19.801Z,101603.75
2023-05-14T19:42:48.373Z,101602.81
2023-05-14T19:45:17.093Z,101604.85
2023-05-14T19:47:45.766Z,101601.27
2023-05-14T19:50:14.231Z,101598.92
2023-05-14T19:52:42.751Z,101596.56
2023-05-14T19:55:11.040Z,101599.97
2023-05-14T19:57:50.617Z,101595.33
2023-05-14T20:00:26.883Z,101595.43
2023-05-14T20:03:01.202Z,101587.44
2023-05-14T20:05:34.013Z,101587.88
2023-05-14T20:08:09.810Z,101586.71
2023-05-14T20:10:41.592Z,101583.45
2023-05-14T20:13:09.862Z,101584.03
2023-05-14T20:15:39.578Z,101575.48
2023-05-14T20:18:08.078Z,101578.01
2023-05-14T20:20:36.923Z,101576.16
2023-05-14T20:23:05.207Z,101572.22
2023-05-14T20:25:33.713Z,101566.89
2023-05-14T20:28:02.105Z,101561.54
2023-05-14T20:30:30.442Z,101550.92
2023-05-14T20:32:59.054Z,101547.15
2023-05-14T20:35:27.654Z,101547.92
2023-05-14T20:37:56.547Z,101542.73
2023-05-14T20:40:25.691Z,101538.77
2023-05-14T20:42:53.991Z,101535.16
2023-05-14T20:45:22.204Z,101527.66
2023-05-14T20:47:50.702Z,101523.16
2023-05-14T20:50:19.220Z,101528.96
2023-05-14T20:52:47.456Z,101530.19
2023-05-14T20:55:15.767Z,101529.33
2023-05-14T20:57:44.148Z,101523.02
2023-05-14T21:02:41.809Z,101516.70
2023-05-14T21:05:10.735Z,101511.96
2023-05-14T21:07:39.629Z,101506.34
2023-05-14T21:10:10.008Z,101511.58
2023-05-14T21:12:38.324Z,101512.45
2023-05-14T21:15:07.548Z,101520.16
2023-05-14T21:17:35.704Z,101525.94
2023-05-14T21:20:04.173Z,101525.94
2023-05-14T21:22:32.546Z,101529.09
2023-05-14T21:25:00.841Z,101526.98
2023-05-14T21:27:29.024Z,101526.98
2023-05-14T21:29:57.506Z,101524.89
2023-05-14T21:32:26.056Z,101517.88
2023-05-14T21:34:54.674Z,101516.98
2023-05-14T21:37:23.254Z,101513.46
2023-05-14T21:39:51.634Z,101511.73
2023-05-14T21:42:21.141Z,101505.09
2023-05-14T21:44:49.737Z,101507.55
2023-05-14T21:47:18.397Z,101507.59
2023-05-14T21:49:46.580Z,101505.32
2023-05-14T21:52:14.859Z,101508.31
2023-05-14T21:54:43.346Z,101512.52
2023-05-14T21:57:11.922Z,101514.78
2023-05-14T21:59:40.504Z,101511.61
2023-05-14T22:02:08.707Z,101507.93
2023-05-14T22:04:36.963Z,101505.81
2023-05-14T22:07:05.441Z,101505.27
2023-05-14T22:09:38.233Z,101501.94
2023-05-14T22:12:07.505Z,101498.93
2023-05-14T22:14:36.003Z,101494.89
2023-05-14T22:17:05.713Z,101487.36
2023-05-14T22:23:11.599Z,101481.30
2023-05-14T22:25:39.956Z,101479.77
2023-05-14T22:28:08.758Z,101478.52
2023-05-14T22:30:39.382Z,101474.66
2023-05-14T22:33:17.320Z,101471.67
2023-05-14T22:35:45.813Z,101463.44
2023-05-14T22:38:14.466Z,101458.02
2023-05-14T22:40:42.838Z,101452.43
2023-05-14T22:43:11.019Z,101454.40
2023-05-14T22:45:39.490Z,101458.63
2023-05-14T22:48:08.087Z,101454.27
2023-05-14T22:50:37.463Z,101451.00
2023-05-14T22:53:05.951Z,101449.82
2023-05-14T22:55:34.826Z,101446.73
2023-05-14T22:58:03.563Z,101452.04
2023-05-14T23:00:31.897Z,101452.43
2023-05-14T23:03:00.186Z,101456.34
2023-05-14T23:05:28.875Z,101451.48
2023-05-14T23:07:57.302Z,101448.89
2023-05-14T23:10:25.957Z,101445.43
2023-05-14T23:12:54.611Z,101442.11
2023-05-14T23:15:25.265Z,101437.56
2023-05-14T23:17:53.790Z,101434.79
2023-05-14T23:20:22.242Z,101436.04
2023-05-14T23:22:50.489Z,101440.44
2023-05-14T23:25:18.892Z,101438.71
2023-05-14T23:27:48.163Z,101442.23
2023-05-14T23:30:16.886Z,101439.11
2023-05-14T23:32:45.150Z,101436.36
2023-05-14T23:35:14.000Z,101434.48
2023-05-14T23:37:49.681Z,101435.19
2023-05-14T23:40:18.648Z,101431.73
2023-05-14T23:42:47.235Z,101428.96
2023-05-14T23:45:15.699Z,101434.42
2023-05-14T23:47:44.108Z,101434.45
2023-05-14T23:50:12.529Z,101440.27
2023-05-14T23:52:40.811Z,101439.23
2023-05-14T23:55:09.796Z,101431.91
2023-05-14T23:57:38.321Z,101433.86
